Time;durP1;ratioP1;P1;durP2;ratioP2;P2;SDS_P1;SDS_P2;PMS_P1;PMS_P2;Temp;Humidity;BMP_temperature;BMP_pressure;BME280_temperature;BME280_humidity;BME280_pressure;Samples;Min_cycle;Max_cycle;Signal;HPM_P1;HPM_P2
2022/05/25 00:01:36;;;;;;;9.03;7.20;;;;;;;15.79;88.18;100181.05;1676336;84;25844;-82
2022/05/25 00:04:05;;;;;;;7.97;7.15;;;;;;;15.77;88.30;100191.27;1679255;84;27574;-81
2022/05/25 00:06:32;;;;;;;9.65;7.60;;;;;;;15.75;88.24;100185.27;1673448;84;25861;-82
2022/05/25 00:08:58;;;;;;;10.75;7.55;;;;;;;15.74;88.37;100176.34;1648009;84;25770;-81
2022/05/25 00:11:25;;;;;;;8.70;7.85;;;;;;;15.75;88.41;100176.65;1679643;84;25991;-81
2022/05/25 00:13:51;;;;;;;9.13;7.60;;;;;;;15.75;88.49;100175.30;1675389;84;25899;-82
2022/05/25 00:16:18;;;;;;;7.83;7.00;;;;;;;15.76;88.52;100172.08;1657237;84;27463;-81
2022/05/25 00:21:15;;;;;;;10.32;9.13;;;;;;;15.76;88.59;100168.83;1640179;84;25873;-81
2022/05/25 00:23:41;;;;;;;12.80;10.28;;;;;;;15.76;88.55;100171.53;1664139;84;25814;-81
2022/05/25 00:26:07;;;;;;;9.73;8.20;;;;;;;15.76;88.70;100168.03;1668658;84;25920;-81
2022/05/25 00:28:33;;;;;;;9.35;8.45;;;;;;;15.75;88.67;100167.72;1671627;84;27476;-82
2022/05/25 00:31:00;;;;;;;8.93;8.03;;;;;;;15.74;88.69;100170.14;1658973;84;25874;-81
2022/05/25 00:33:26;;;;;;;9.20;7.47;;;;;;;15.76;88.71;100169.37;1657417;84;25835;-82
2022/05/25 00:35:52;;;;;;;9.45;8.40;;;;;;;15.77;88.69;100171.01;1681077;84;25896;-80
2022/05/25 00:38:19;;;;;;;8.75;7.87;;;;;;;15.77;88.67;100178.59;1673982;84;25776;-81
2022/05/25 00:40:45;;;;;;;10.00;8.08;;;;;;;15.77;88.62;100176.41;1684974;84;28327;-81
2022/05/25 00:43:13;;;;;;;13.10;8.98;;;;;;;15.77;88.56;100173.70;1665861;84;26046;-81
2022/05/25 00:46:02;;;;;;;9.53;7.40;;;;;;;15.77;88.53;100173.70;1670764;84;25898;-81
2022/05/25 00:48:39;;;;;;;8.50;7.67;;;;;;;15.76;88.53;100186.38;1643000;85;26649;-82
2022/05/25 00:51:13;;;;;;;10.20;8.35;;;;;;;15.74;88.56;100184.99;1663044;84;26360;-81
2022/05/25 00:53:47;;;;;;;9.35;8.45;;;;;;;15.74;88.64;100176.34;1676512;85;27451;-81
2022/05/25 00:56:17;;;;;;;10.32;8.30;;;;;;;15.74;88.59;100176.89;1667184;84;25809;-81
2022/05/25 00:58:55;;;;;;;10.05;8.35;;;;;;;15.74;88.50;100174.19;1666003;84;25905;-81
2022/05/25 01:01:21;;;;;;;12.58;8.68;;;;;;;15.72;88.51;100166.30;1664835;85;25781;-81
2022/05/25 01:03:48;;;;;;;10.70;9.60;;;;;;;15.70;88.44;100167.05;1682741;84;26564;-81
2022/05/25 01:06:51;;;;;;;12.90;8.70;;;;;;;15.71;88.62;100174.63;1656072;84;27467;-80
2022/05/25 01:09:23;;;;;;;9.75;8.38;;;;;;;15.69;88.64;100170.83;1656627;84;26646;-81
2022/05/25 01:12:15;;;;;;;10.38;8.60;;;;;;;15.67;88.70;100178.34;1686781;84;26191;-80
2022/05/25 01:14:50;;;;;;;10.70;9.53;;;;;;;15.65;88.75;100174.21;1675647;84;25769;-82
2022/05/25 01:17:51;;;;;;;10.60;8.90;;;;;;;15.65;88.77;100176.91;1673188;84;25325;-81
2022/05/25 01:20:46;;;;;;;9.68;8.68;;;;;;;15.65;88.78;100170.16;1658424;84;28363;-81
2022/05/25 01:23:52;;;;;;;11.15;8.90;;;;;;;15.64;88.80;100175.25;1666845;84;25967;-81
2022/05/25 01:26:33;;;;;;;10.90;9.10;;;;;;;15.61;88.77;100173.83;1659480;84;26472;-81
2022/05/25 01:29:27;;;;;;;11.60;9.23;;;;;;;15.59;88.94;100163.78;1661264;84;35521;-81
2022/05/25 01:32:05;;;;;;;10.85;9.38;;;;;;;15.59;88.92;100164.33;1673195;84;26058;-81
2022/05/25 01:34:55;;;;;;;9.13;8.30;;;;;;;15.57;88.76;100165.09;1675843;84;27474;-80
2022/05/25 01:37:43;;;;;;;11.28;8.38;;;;;;;15.54;88.74;100162.32;1663960;84;26129;-81
2022/05/25 01:40:35;;;;;;;9.38;8.23;;;;;;;15.52;88.73;100170.34;1666647;84;25867;-81
2022/05/25 01:43:15;;;;;;;9.45;8.23;;;;;;;15.49;88.61;100161.34;1672635;84;25938;-81
2022/05/25 01:45:52;;;;;;;9.63;8.73;;;;;;;15.48;88.75;100157.02;1663147;84;25868;-82
2022/05/25 01:48:22;;;;;;;9.85;8.93;;;;;;;15.48;88.91;100160.55;1662412;84;27470;-81
2022/05/25 01:50:56;;;;;;;10.78;9.73;;;;;;;15.48;88.94;100163.77;1669950;84;25810;-82
2022/05/25 01:53:28;;;;;;;10.72;9.58;;;;;;;15.48;89.56;100170.51;1658314;84;25618;-81
2022/05/25 01:56:02;;;;;;;10.40;9.40;;;;;;;15.42;89.37;100173.55;1661181;84;26417;-82
2022/05/25 01:58:36;;;;;;;12.63;9.15;;;;;;;15.43;89.89;100176.59;1672763;84;26008;-81
2022/05/25 02:01:00;;;;;;;12.53;10.03;;;;;;;15.43;89.93;100169.84;1661833;84;28220;-81
2022/05/25 02:06:42;;;;;;;10.00;9.03;;;;;;;15.42;90.03;100169.50;1673195;84;25745;-81
2022/05/25 02:09:20;;;;;;;10.82;9.25;;;;;;;15.43;90.17;100177.94;1634840;85;25855;-81
2022/05/25 02:11:55;;;;;;;11.18;9.53;;;;;;;15.44;90.13;100175.00;1674577;84;25981;-81
2022/05/25 02:14:42;;;;;;;11.03;9.88;;;;;;;15.44;90.19;100178.22;1653283;84;27659;-81
2022/05/25 02:17:37;;;;;;;12.55;9.25;;;;;;;15.44;90.24;100183.62;1666641;85;25943;-81
2022/05/25 02:20:35;;;;;;;10.68;9.68;;;;;;;15.44;90.24;100184.45;1666029;84;26026;-81
2022/05/25 02:23:07;;;;;;;11.40;10.00;;;;;;;15.46;90.26;100195.56;1669634;84;25890;-81
2022/05/25 02:25:45;;;;;;;12.98;10.38;;;;;;;15.46;90.46;100197.73;1661485;84;25872;-81
2022/05/25 02:28:28;;;;;;;11.28;10.03;;;;;;;15.44;90.34;100197.95;1681499;84;27600;-81
2022/05/25 02:30:58;;;;;;;11.60;10.35;;;;;;;15.46;90.40;100207.19;1649592;84;26039;-81
2022/05/25 02:33:35;;;;;;;12.17;10.60;;;;;;;15.47;90.48;100203.42;1664763;84;25839;-81
2022/05/25 02:36:03;;;;;;;11.70;10.55;;;;;;;15.47;90.43;100206.64;1663167;84;25847;-81
2022/05/25 02:38:29;;;;;;;12.30;11.05;;;;;;;15.48;90.51;100208.30;1676105;84;26357;-82
2022/05/25 02:41:09;;;;;;;10.68;9.58;;;;;;;15.47;90.55;100210.69;1656653;84;27514;-82
2022/05/25 02:43:37;;;;;;;13.03;10.40;;;;;;;15.45;90.53;100216.32;1678597;84;26525;-82
2022/05/25 02:46:06;;;;;;;14.50;11.15;;;;;;;15.45;90.68;100213.62;1649794;85;25964;-81
2022/05/25 02:48:37;;;;;;;12.07;10.85;;;;;;;15.45;90.69;100212.27;1666365;84;25931;-82
2022/05/25 02:51:03;;;;;;;12.82;11.45;;;;;;;15.44;90.87;100218.70;1664070;84;25946;-81
2022/05/25 02:53:29;;;;;;;15.15;11.03;;;;;;;15.45;90.99;100217.67;1675750;84;28279;-81
2022/05/25 02:55:56;;;;;;;13.32;11.45;;;;;;;15.46;91.05;100221.20;1657194;84;25852;-81
2022/05/25 02:58:22;;;;;;;11.93;10.78;;;;;;;15.47;91.13;100216.08;1681260;84;26263;-81
2022/05/25 03:00:48;;;;;;;13.10;11.70;;;;;;;15.49;91.28;100213.46;1673584;84;25754;-81
2022/05/25 03:03:15;;;;;;;14.83;12.03;;;;;;;15.49;91.21;100220.20;1677059;84;25949;-81
2022/05/25 03:05:42;;;;;;;13.10;11.80;;;;;;;15.49;91.22;100221.56;1655847;84;27522;-81
2022/05/25 03:08:08;;;;;;;13.18;11.75;;;;;;;15.52;91.45;100222.98;1648789;84;25971;-81
2022/05/25 03:10:34;;;;;;;13.95;11.78;;;;;;;15.52;91.57;100225.16;1648340;84;25641;-80
2022/05/25 03:13:02;;;;;;;14.33;12.82;;;;;;;15.51;91.60;100224.85;1655090;84;25761;-81
2022/05/25 03:15:28;;;;;;;14.20;12.78;;;;;;;15.52;91.71;100227.86;1650068;84;25824;-80
2022/05/25 03:17:54;;;;;;;14.33;12.85;;;;;;;15.53;91.86;100228.14;1651045;84;27060;-81
2022/05/25 03:20:20;;;;;;;15.83;12.20;;;;;;;15.54;92.02;100228.45;1677374;84;25812;-81
2022/05/25 03:22:46;;;;;;;14.33;12.90;;;;;;;15.55;92.24;100230.09;1666389;84;25335;-81
2022/05/25 03:25:13;;;;;;;15.10;13.50;;;;;;;15.56;92.30;100234.45;1665455;84;26556;-82
2022/05/25 03:27:40;;;;;;;14.38;12.90;;;;;;;15.57;92.41;100233.39;1676102;84;26553;-81
2022/05/25 03:30:09;;;;;;;15.72;13.55;;;;;;;15.58;92.45;100231.00;1668307;84;27540;-82
2022/05/25 03:32:35;;;;;;;19.77;16.77;;;;;;;15.59;92.71;100228.58;1659896;84;26573;-81
2022/05/25 03:35:02;;;;;;;20.88;16.27;;;;;;;15.63;92.79;100238.42;1667712;84;25859;-81
2022/05/25 03:37:29;;;;;;;20.55;16.57;;;;;;;15.64;92.78;100236.00;1670565;84;25848;-81
2022/05/25 03:39:55;;;;;;;18.40;14.85;;;;;;;15.65;92.89;100233.61;1661600;84;25778;-81
2022/05/25 03:42:22;;;;;;;16.32;13.68;;;;;;;15.68;93.02;100238.02;1679768;84;27545;-81
2022/05/25 03:44:49;;;;;;;18.90;15.40;;;;;;;15.70;93.12;100234.56;1650919;84;26533;-82
2022/05/25 03:47:16;;;;;;;16.30;14.70;;;;;;;15.73;93.10;100236.81;1659832;84;25309;-80
2022/05/25 03:49:43;;;;;;;17.75;15.15;;;;;;;15.75;93.29;100225.26;1681739;84;25777;-81
2022/05/25 03:52:10;;;;;;;18.02;14.78;;;;;;;15.77;93.41;100224.50;1668126;84;25978;-81
2022/05/25 03:54:37;;;;;;;17.32;14.30;;;;;;;15.80;93.62;100230.77;1661049;84;27532;-81
2022/05/25 03:57:07;;;;;;;19.75;14.68;;;;;;;15.83;93.91;100237.08;1661722;84;25931;-81
2022/05/25 03:59:33;;;;;;;18.48;15.28;;;;;;;15.83;94.00;100237.59;1654191;84;25951;-81
2022/05/25 04:01:59;;;;;;;17.27;15.48;;;;;;;15.83;94.15;100242.48;1675588;84;25858;-81
2022/05/25 04:04:25;;;;;;;18.60;16.60;;;;;;;15.82;94.17;100247.61;1684923;84;25360;-81
2022/05/25 04:06:51;;;;;;;17.73;15.55;;;;;;;15.83;94.46;100253.28;1662431;84;28280;-81
2022/05/25 04:09:18;;;;;;;16.90;14.30;;;;;;;15.83;94.56;100249.75;1667656;84;25898;-81
2022/05/25 04:11:44;;;;;;;18.02;15.60;;;;;;;15.83;94.67;100250.59;1671184;84;25834;-81
2022/05/25 04:14:12;;;;;;;18.30;16.35;;;;;;;15.88;94.92;100251.25;1648961;84;26556;-80
2022/05/25 04:16:38;;;;;;;18.37;16.10;;;;;;;15.91;95.03;100250.80;1659973;84;25596;-81
2022/05/25 04:19:04;;;;;;;18.12;15.88;;;;;;;15.93;95.26;100246.80;1670635;84;27578;-81
2022/05/25 04:21:30;;;;;;;17.30;14.95;;;;;;;15.96;95.38;100250.92;1662982;84;25871;-81
2022/05/25 04:23:57;;;;;;;19.82;16.60;;;;;;;15.95;95.33;100250.64;1677236;84;25956;-81
2022/05/25 04:26:23;;;;;;;17.62;15.78;;;;;;;15.98;95.72;100252.86;1677816;84;25936;-81
2022/05/25 04:28:49;;;;;;;18.17;16.10;;;;;;;15.99;95.83;100260.76;1668558;84;25943;-81
2022/05/25 04:31:16;;;;;;;20.23;16.45;;;;;;;16.01;95.98;100253.25;1669357;84;26987;-81
2022/05/25 04:33:42;;;;;;;18.62;16.23;;;;;;;16.01;96.12;100252.41;1673076;84;25693;-81
2022/05/25 04:36:08;;;;;;;18.57;16.42;;;;;;;16.01;96.21;100255.95;1668044;84;25890;-81
2022/05/25 04:38:34;;;;;;;20.48;18.05;;;;;;;16.04;96.45;100252.77;1668516;84;26482;-80
2022/05/25 04:41:01;;;;;;;22.45;18.07;;;;;;;16.06;96.50;100256.06;1670389;84;26408;-81
2022/05/25 04:43:28;;;;;;;21.05;18.20;;;;;;;16.07;96.67;100253.67;1670216;84;27446;-81
2022/05/25 04:45:55;;;;;;;20.85;17.90;;;;;;;16.07;96.98;100255.02;1665187;84;26019;-81
2022/05/25 04:48:23;;;;;;;21.65;19.17;;;;;;;16.06;97.22;100252.53;1673144;84;25855;-81
2022/05/25 04:50:52;;;;;;;22.45;18.77;;;;;;;16.04;97.21;100250.59;1669905;84;25921;-81
2022/05/25 04:53:21;;;;;;;24.35;20.20;;;;;;;16.00;98.02;100241.30;1667221;84;26555;-81
2022/05/25 04:58:37;;;;;;;30.15;23.10;;;;;;;15.95;97.86;100243.34;1667922;84;26407;-81
2022/05/25 05:01:06;;;;;;;25.43;22.53;;;;;;;15.94;98.33;100259.78;1669345;84;25813;-82
2022/05/25 05:03:33;;;;;;;22.87;20.50;;;;;;;15.89;98.54;100253.71;1675270;84;26461;-82
2022/05/25 05:06:00;;;;;;;24.12;20.35;;;;;;;15.86;98.73;100259.59;1644606;85;25889;-82
2022/05/25 05:08:28;;;;;;;26.97;21.10;;;;;;;15.87;98.56;100258.52;1664545;84;27491;-83
2022/05/25 05:10:56;;;;;;;25.15;22.05;;;;;;;15.89;98.58;100260.47;1676002;84;25902;-81
2022/05/25 05:13:23;;;;;;;23.05;20.65;;;;;;;15.92;98.61;100260.02;1682288;84;26378;-82
2022/05/25 05:15:53;;;;;;;23.40;20.97;;;;;;;15.98;98.69;100256.91;1673868;84;26775;-82
2022/05/25 05:18:23;;;;;;;26.15;23.35;;;;;;;16.02;98.93;100258.93;1669179;84;25865;-82
2022/05/25 05:20:57;;;;;;;25.55;22.13;;;;;;;16.03;98.86;100257.89;1675897;84;27569;-82
2022/05/25 05:23:23;;;;;;;27.07;21.48;;;;;;;16.06;98.76;100255.23;1677598;84;26077;-82
2022/05/25 05:25:49;;;;;;;24.63;21.55;;;;;;;16.10;98.81;100249.14;1674195;84;25955;-82
2022/05/25 05:28:23;;;;;;;23.92;21.35;;;;;;;16.13;98.86;100251.91;1655775;84;26496;-82
2022/05/25 05:30:55;;;;;;;24.63;21.87;;;;;;;16.16;98.84;100255.00;1669099;84;25852;-81
2022/05/25 05:33:23;;;;;;;24.52;21.90;;;;;;;16.20;99.07;100258.05;1663124;84;27633;-82
2022/05/25 05:36:00;;;;;;;27.67;24.67;;;;;;;16.17;98.88;100254.44;1647465;84;25363;-81
2022/05/25 05:38:29;;;;;;;28.83;25.75;;;;;;;16.19;99.04;100260.44;1669872;84;25975;-82
2022/05/25 05:40:56;;;;;;;29.60;24.43;;;;;;;16.23;99.39;100263.52;1654386;84;25894;-82
2022/05/25 05:43:22;;;;;;;31.15;27.60;;;;;;;16.23;99.23;100260.27;1673048;84;26306;-82
2022/05/25 05:45:52;;;;;;;28.73;25.62;;;;;;;16.25;98.87;100254.66;1664001;84;28338;-81
2022/05/25 05:48:23;;;;;;;30.72;27.00;;;;;;;16.27;99.09;100257.42;1662424;84;25969;-81
2022/05/25 05:50:54;;;;;;;32.25;26.35;;;;;;;16.27;99.08;100263.35;1672125;84;26161;-81
2022/05/25 05:53:22;;;;;;;32.48;28.00;;;;;;;16.23;99.02;100261.09;1656880;84;26544;-82
2022/05/25 05:55:49;;;;;;;35.48;30.05;;;;;;;16.23;99.29;100259.47;1675752;84;26383;-81
2022/05/25 05:58:15;;;;;;;36.35;29.85;;;;;;;16.23;99.19;100267.58;1683670;84;27488;-82
2022/05/25 06:00:42;;;;;;;32.65;28.62;;;;;;;16.23;99.21;100277.31;1675767;84;25888;-82
2022/05/25 06:03:09;;;;;;;38.40;30.30;;;;;;;16.25;99.37;100283.86;1674434;84;25868;-81
2022/05/25 06:05:35;;;;;;;38.30;30.40;;;;;;;16.28;99.50;100278.50;1686264;84;26639;-81
2022/05/25 06:08:10;;;;;;;38.58;30.43;;;;;;;16.29;99.31;100278.29;1673813;84;25291;-82
2022/05/25 06:10:37;;;;;;;38.40;32.95;;;;;;;16.31;99.56;100275.34;1664068;84;27564;-82
2022/05/25 06:13:07;;;;;;;41.85;32.45;;;;;;;16.29;99.41;100268.00;1659439;84;25334;-82
2022/05/25 06:21:09;;;;;;;40.05;33.92;;;;;;;16.37;99.85;100265.78;1650889;84;25874;-80
2022/05/25 06:23:36;;;;;;;41.60;33.30;;;;;;;16.41;100.00;100266.12;1669233;84;27474;-81
2022/05/25 06:26:02;;;;;;;40.80;32.85;;;;;;;16.42;99.75;100266.44;1665043;84;26006;-81
2022/05/25 06:28:29;;;;;;;42.30;35.45;;;;;;;16.44;99.70;100267.86;1681941;84;25815;-82
2022/05/25 06:30:55;;;;;;;41.18;34.80;;;;;;;16.51;99.97;100269.94;1653801;84;25793;-81
2022/05/25 06:33:21;;;;;;;41.83;34.40;;;;;;;16.62;100.00;100268.30;1666016;84;25942;-81
2022/05/25 06:35:47;;;;;;;40.15;32.70;;;;;;;16.67;100.00;100267.08;1658925;84;28388;-81
2022/05/25 06:38:14;;;;;;;45.50;35.75;;;;;;;16.71;100.00;100265.55;1661374;84;25307;-82
2022/05/25 06:40:40;;;;;;;41.90;33.83;;;;;;;16.73;99.72;100267.49;1667534;84;25860;-81
2022/05/25 06:43:06;;;;;;;44.67;35.83;;;;;;;16.74;99.39;100267.80;1665925;84;25948;-81
2022/05/25 06:45:32;;;;;;;40.00;34.03;;;;;;;16.73;99.23;100266.14;1675503;84;26502;-81
2022/05/25 06:47:59;;;;;;;38.85;33.38;;;;;;;16.73;99.56;100275.08;1667799;84;27475;-81
2022/05/25 06:50:25;;;;;;;41.98;32.63;;;;;;;16.77;99.35;100281.67;1658497;84;25888;-81
2022/05/25 06:52:52;;;;;;;34.83;30.80;;;;;;;16.81;99.58;100284.20;1671904;84;25848;-80
2022/05/25 06:55:18;;;;;;;40.78;32.78;;;;;;;16.82;99.66;100279.62;1674136;84;26024;-81
2022/05/25 06:57:44;;;;;;;36.33;31.07;;;;;;;16.79;99.19;100283.61;1664654;84;25881;-81
2022/05/25 07:00:12;;;;;;;38.75;32.85;;;;;;;16.83;99.36;100286.13;1675063;84;27459;-81
2022/05/25 07:02:38;;;;;;;41.08;33.40;;;;;;;16.85;99.24;100285.37;1671664;84;25912;-81
2022/05/25 07:05:05;;;;;;;36.98;32.88;;;;;;;16.89;99.03;100285.19;1659334;84;26052;-81
2022/05/25 07:07:32;;;;;;;36.53;32.48;;;;;;;16.89;98.88;100286.55;1660083;84;25804;-81
2022/05/25 07:09:59;;;;;;;37.45;32.70;;;;;;;16.93;99.06;100287.75;1662726;84;26609;-80
2022/05/25 07:12:25;;;;;;;36.90;32.35;;;;;;;16.96;99.22;100289.13;1677965;84;27695;-81
2022/05/25 07:14:51;;;;;;;39.27;33.02;;;;;;;17.00;98.91;100282.73;1663971;84;26519;-81
2022/05/25 07:17:18;;;;;;;39.40;32.65;;;;;;;16.99;98.57;100288.67;1675927;84;26059;-81
2022/05/25 07:19:44;;;;;;;38.28;32.70;;;;;;;16.96;98.53;100287.78;1649683;84;25982;-81
2022/05/25 07:22:11;;;;;;;41.02;33.50;;;;;;;16.94;98.49;100288.02;1654240;84;26224;-81
2022/05/25 07:24:38;;;;;;;39.33;33.25;;;;;;;16.95;98.63;100291.04;1661163;84;27481;-81
2022/05/25 07:27:05;;;;;;;39.27;34.83;;;;;;;17.00;98.96;100294.91;1666729;84;25999;-81
2022/05/25 07:29:31;;;;;;;43.23;34.78;;;;;;;17.00;98.83;100295.72;1668193;84;25331;-81
2022/05/25 07:32:02;;;;;;;38.95;34.40;;;;;;;17.03;98.71;100297.96;1660277;84;25937;-80
2022/05/25 07:34:44;;;;;;;40.28;35.00;;;;;;;17.07;99.21;100295.59;1668136;85;26030;-81
2022/05/25 07:37:18;;;;;;;39.13;32.98;;;;;;;17.04;98.93;100295.56;1662100;84;27561;-80
2022/05/25 07:39:52;;;;;;;38.92;34.50;;;;;;;16.99;98.41;100299.50;1673035;84;26501;-81
2022/05/25 07:42:21;;;;;;;41.48;34.08;;;;;;;17.00;98.60;100304.39;1659652;84;25856;-81
2022/05/25 07:45:00;;;;;;;40.85;34.45;;;;;;;17.05;99.14;100305.84;1682111;84;25872;-81
2022/05/25 07:47:29;;;;;;;39.65;34.33;;;;;;;17.05;98.77;100308.02;1664852;85;26456;-81
2022/05/25 07:49:55;;;;;;;39.83;34.48;;;;;;;17.04;98.86;100309.09;1660469;84;27464;-80
2022/05/25 07:52:25;;;;;;;43.10;35.30;;;;;;;17.05;98.74;100312.60;1662487;84;25749;-81
2022/05/25 07:54:52;;;;;;;41.05;34.50;;;;;;;17.04;98.53;100321.27;1663455;84;25936;-80
2022/05/25 07:57:18;;;;;;;37.03;33.08;;;;;;;17.02;98.46;100313.92;1642265;85;25836;-80
2022/05/25 07:59:45;;;;;;;39.98;35.17;;;;;;;17.00;98.76;100322.77;1663235;84;25950;-81
2022/05/25 08:08:05;;;;;;;37.75;33.63;;;;;;;17.08;98.66;100327.03;1666345;84;25879;-81
2022/05/25 08:10:32;;;;;;;39.90;33.85;;;;;;;17.11;98.96;100327.37;1665908;84;25830;-80
2022/05/25 08:13:00;;;;;;;39.13;32.53;;;;;;;17.13;98.67;100336.63;1686697;84;25919;-80
2022/05/25 08:15:29;;;;;;;38.95;33.15;;;;;;;17.16;98.65;100336.14;1650062;85;27699;-81
2022/05/25 08:17:55;;;;;;;36.45;32.58;;;;;;;17.19;98.94;100338.39;1671200;84;25865;-81
2022/05/25 08:20:22;;;;;;;39.70;32.63;;;;;;;17.22;98.98;100333.84;1671098;82;26313;-81
2022/05/25 08:22:50;;;;;;;36.13;31.35;;;;;;;17.25;98.65;100338.27;1657729;84;26643;-81
2022/05/25 08:25:19;;;;;;;36.17;31.62;;;;;;;17.28;98.79;100342.39;1655891;84;25760;-80
2022/05/25 08:27:46;;;;;;;35.08;31.27;;;;;;;17.28;98.68;100344.55;1675408;84;27478;-81
2022/05/25 08:30:19;;;;;;;35.03;31.17;;;;;;;17.34;98.91;100348.20;1655330;84;26475;-80
2022/05/25 08:32:46;;;;;;;33.67;30.02;;;;;;;17.37;98.79;100342.30;1668001;84;26532;-81
2022/05/25 08:35:14;;;;;;;35.92;28.30;;;;;;;17.40;98.17;100347.26;1676149;84;26508;-80
2022/05/25 08:37:41;;;;;;;34.78;31.10;;;;;;;17.42;98.08;100351.91;1675110;84;25870;-81
2022/05/25 08:40:10;;;;;;;34.83;28.40;;;;;;;17.45;98.21;100352.23;1656989;84;27478;-81
2022/05/25 08:42:53;;;;;;;31.82;28.32;;;;;;;17.47;98.19;100360.15;1679134;84;25734;-80
2022/05/25 08:45:24;;;;;;;30.20;25.97;;;;;;;17.47;98.33;100364.22;1655495;84;25784;-80
2022/05/25 08:47:55;;;;;;;26.85;23.92;;;;;;;17.46;97.79;100368.80;1671649;84;26725;-80
2022/05/25 08:50:22;;;;;;;24.25;21.45;;;;;;;17.42;97.83;100374.40;1669252;84;25748;-80
2022/05/25 08:52:48;;;;;;;23.80;21.10;;;;;;;17.42;97.65;100370.34;1660884;84;28481;-80
2022/05/25 08:55:38;;;;;;;23.52;20.92;;;;;;;17.44;97.67;100371.44;1674149;85;25872;-81
2022/05/25 08:58:08;;;;;;;22.37;19.55;;;;;;;17.42;97.81;100375.75;1672372;84;26613;-81
2022/05/25 09:00:35;;;;;;;22.45;19.30;;;;;;;17.45;97.49;100378.52;1664934;84;25890;-80
2022/05/25 09:03:32;;;;;;;19.95;17.92;;;;;;;17.47;97.69;100383.97;1661206;85;26465;-80
2022/05/25 09:06:04;;;;;;;21.07;18.65;;;;;;;17.50;97.70;100386.77;1661398;84;27453;-80
2022/05/25 09:08:57;;;;;;;22.60;18.92;;;;;;;17.57;98.40;100386.13;1671711;84;26346;-80
2022/05/25 09:11:29;;;;;;;18.05;16.30;;;;;;;17.66;98.00;100391.48;1659494;84;26557;-80
2022/05/25 09:14:03;;;;;;;18.67;16.85;;;;;;;17.74;97.60;100387.05;1657811;84;25910;-80
2022/05/25 09:16:34;;;;;;;18.30;15.23;;;;;;;17.85;97.92;100401.62;1674637;84;25886;-80
2022/05/25 09:19:06;;;;;;;;;;;;;;;17.86;95.95;100390.55;1657504;84;28295;-80
2022/05/25 09:21:52;;;;;;;18.17;12.63;;;;;;;17.91;95.92;100402.86;1655243;84;25689;-80
2022/05/25 09:24:22;;;;;;;15.63;14.03;;;;;;;17.87;94.02;100401.69;1672405;84;25755;-80
2022/05/25 09:26:50;;;;;;;16.02;13.13;;;;;;;17.85;94.55;100398.92;1656627;84;26518;-80
2022/05/25 09:29:18;;;;;;;14.43;11.12;;;;;;;17.87;94.45;100408.47;1655591;84;25688;-80
2022/05/25 09:31:52;;;;;;;11.55;10.18;;;;;;;17.82;92.46;100411.58;1661830;84;28277;-80
2022/05/25 09:34:38;;;;;;;13.35;11.90;;;;;;;17.76;91.85;100412.53;1675463;85;25800;-80
2022/05/25 09:37:16;;;;;;;12.98;11.70;;;;;;;17.69;91.91;100411.30;1660046;84;26513;-80
2022/05/25 09:39:45;;;;;;;11.97;10.82;;;;;;;17.60;91.32;100418.97;1660059;84;26188;-80
2022/05/25 09:42:19;;;;;;;11.60;10.10;;;;;;;17.52;91.07;100411.73;1659852;84;26087;-80
2022/05/25 09:44:52;;;;;;;14.10;11.12;;;;;;;17.50;90.90;100410.63;1682187;84;28335;-80
2022/05/25 09:47:33;;;;;;;12.40;10.75;;;;;;;17.44;91.07;100410.19;1666553;84;25836;-80
2022/05/25 09:49:59;;;;;;;11.53;10.48;;;;;;;17.42;91.45;100406.89;1668140;84;26640;-80
2022/05/25 09:52:37;;;;;;;13.13;11.83;;;;;;;17.41;91.76;100407.11;1678720;84;26512;-80
2022/05/25 09:55:12;;;;;;;13.18;11.08;;;;;;;17.41;91.93;100415.23;1675101;84;26588;-79
2022/05/25 09:57:56;;;;;;;11.75;10.63;;;;;;;17.36;91.71;100427.31;1677120;84;27479;-80
2022/05/25 10:00:41;;;;;;;13.20;11.88;;;;;;;17.33;91.77;100421.00;1677701;84;25858;-80
2022/05/25 10:03:12;;;;;;;11.93;10.93;;;;;;;17.28;92.04;100426.31;1659209;84;26532;-81
2022/05/25 10:05:58;;;;;;;13.50;12.20;;;;;;;17.25;91.58;100443.02;1672236;84;26580;-80
2022/05/25 10:08:37;;;;;;;11.45;10.35;;;;;;;17.23;92.05;100432.42;1666732;84;26593;-80
2022/05/25 10:11:28;;;;;;;12.65;11.35;;;;;;;17.21;91.76;100437.25;1659855;84;27625;-80
2022/05/25 10:13:57;;;;;;;12.47;11.30;;;;;;;17.17;91.89;100446.07;1667685;84;25882;-80
2022/05/25 10:16:30;;;;;;;12.45;11.25;;;;;;;17.13;91.68;100451.66;1669969;85;25348;-80
2022/05/25 10:19:00;;;;;;;10.93;9.73;;;;;;;17.08;91.65;100449.64;1675127;84;25972;-80
2022/05/25 10:21:36;;;;;;;13.50;10.08;;;;;;;17.02;91.79;100445.17;1671515;84;25863;-80
2022/05/25 10:24:16;;;;;;;12.40;9.75;;;;;;;16.93;91.37;100444.68;1660505;84;27450;-80
2022/05/25 10:26:52;;;;;;;10.60;8.58;;;;;;;16.85;91.12;100443.63;1676340;84;25346;-80
2022/05/25 10:38:27;;;;;;;8.20;7.40;;;;;;;16.72;91.54;100455.20;1657748;84;27382;-80
2022/05/25 10:40:57;;;;;;;9.08;7.30;;;;;;;16.71;91.01;100458.42;1663861;84;26117;-80
2022/05/25 10:43:27;;;;;;;7.85;6.83;;;;;;;16.68;90.93;100452.11;1680794;84;25789;-79
2022/05/25 10:45:55;;;;;;;7.92;7.12;;;;;;;16.67;90.71;100449.12;1664166;84;26431;-80
2022/05/25 10:48:45;;;;;;;7.90;7.10;;;;;;;16.65;90.87;100446.34;1675888;84;25908;-79
2022/05/25 10:51:18;;;;;;;8.07;6.50;;;;;;;16.63;90.30;100442.52;1682138;84;28464;-80
2022/05/25 10:56:58;;;;;;;5.85;5.25;;;;;;;16.61;89.91;100438.39;1668174;84;26192;-80
2022/05/25 10:59:37;;;;;;;;;;;;;;;16.56;88.86;100436.89;1677536;84;26778;-79
2022/05/25 11:02:31;;;;;;;5.00;4.50;;;;;;;16.53;88.72;100438.17;1671667;84;25309;-80
2022/05/25 11:05:15;;;;;;;5.42;4.92;;;;;;;16.45;88.34;100435.77;1669818;84;27475;-80
2022/05/25 11:07:43;;;;;;;5.15;4.62;;;;;;;16.39;87.72;100452.07;1659641;84;26486;-80
2022/05/25 11:10:47;;;;;;;5.78;5.15;;;;;;;16.30;87.73;100448.86;1675427;84;25902;-79
2022/05/25 11:13:39;;;;;;;7.05;5.62;;;;;;;16.29;87.97;100453.98;1652583;84;25766;-80
2022/05/25 11:16:27;;;;;;;8.03;4.92;;;;;;;16.23;88.11;100453.51;1649931;84;25844;-79
2022/05/25 11:19:24;;;;;;;10.82;5.40;;;;;;;16.16;88.38;100452.78;1675472;84;27442;-80
2022/05/25 11:22:25;;;;;;;7.15;5.30;;;;;;;16.13;88.86;100458.63;1680720;84;26254;-80
2022/05/25 11:25:04;;;;;;;;;;;;;;;16.10;89.33;100457.20;1665976;84;25791;-80
2022/05/25 11:28:04;;;;;;;8.43;6.67;;;;;;;16.06;89.89;100456.52;1673813;84;25781;-80
2022/05/25 11:30:48;;;;;;;11.20;7.12;;;;;;;15.99;90.18;100460.68;1670390;84;25872;-80
2022/05/25 11:33:25;;;;;;;9.08;6.40;;;;;;;15.91;90.20;100454.75;1630968;85;28548;-80
2022/05/25 11:36:48;;;;;;;11.00;6.90;;;;;;;15.80;90.44;100471.70;1682250;84;26146;-80
2022/05/25 11:39:23;;;;;;;9.08;7.50;;;;;;;15.74;91.42;100475.30;1647858;84;25826;-80
2022/05/25 11:42:10;;;;;;;9.65;8.33;;;;;;;15.64;91.90;100479.84;1663733;84;25848;-80
2022/05/25 11:45:18;;;;;;;11.22;9.85;;;;;;;15.58;92.29;100475.34;1675614;84;26465;-80
2022/05/25 11:48:16;;;;;;;10.85;8.75;;;;;;;15.52;93.55;100482.97;1663161;84;27634;-80
2022/05/25 11:51:09;;;;;;;10.60;7.67;;;;;;;15.45;94.41;100471.40;1661163;84;26065;-80
2022/05/25 11:54:17;;;;;;;10.03;7.20;;;;;;;15.38;94.25;100488.97;1669938;84;25861;-80
2022/05/25 11:57:24;;;;;;;11.05;6.42;;;;;;;15.32;93.74;100495.77;1668575;84;25769;-80
2022/05/25 12:00:22;;;;;;;9.73;6.33;;;;;;;15.26;93.59;100498.84;1676640;84;26932;-80
2022/05/25 12:03:15;;;;;;;6.25;3.42;;;;;;;15.21;93.82;100495.95;1659319;84;28319;-80
2022/05/25 12:06:22;;;;;;;7.22;2.87;;;;;;;15.08;91.85;100506.84;1660826;84;25987;-80
2022/05/25 12:09:03;;;;;;;4.15;2.98;;;;;;;14.96;90.38;100498.31;1667856;84;25894;-81
2022/05/25 12:12:01;;;;;;;4.62;2.83;;;;;;;14.79;90.26;100498.02;1669054;84;25853;-81
2022/05/25 12:14:51;;;;;;;5.03;2.52;;;;;;;14.71;90.71;100497.44;1666010;84;26575;-80